createdAt,value
2022-08-11T00:01:08.398Z,26.81
2022-08-11T00:03:42.377Z,26.77
2022-08-11T00:06:14.030Z,26.78
2022-08-11T00:08:43.149Z,26.77
2022-08-11T00:11:12.530Z,26.79
2022-08-11T00:13:45.505Z,26.78
2022-08-11T00:16:24.838Z,26.73
2022-08-11T00:18:53.884Z,26.74
2022-08-11T00:21:59.748Z,26.87
2022-08-11T00:24:10.149Z,27.10
2022-08-11T00:26:36.959Z,27.03
2022-08-11T00:29:10.855Z,26.94
2022-08-11T00:31:38.329Z,26.80
2022-08-11T00:34:11.455Z,26.82
2022-08-11T00:37:11.186Z,26.77
2022-08-11T00:39:48.702Z,26.65
2022-08-11T00:42:43.494Z,26.56
2022-08-11T00:45:42.533Z,26.62
2022-08-11T00:48:19.928Z,26.76
2022-08-11T00:51:09.747Z,26.64
2022-08-11T00:54:00.517Z,26.70
2022-08-11T00:56:59.330Z,26.63
2022-08-11T00:59:56.883Z,26.59
2022-08-11T01:02:48.262Z,26.53
2022-08-11T01:05:36.170Z,26.52
2022-08-11T01:08:30.394Z,26.42
2022-08-11T01:11:32.279Z,26.54
2022-08-11T01:14:17.618Z,26.45
2022-08-11T01:17:32.531Z,26.30
2022-08-11T01:20:46.927Z,26.18
2022-08-11T01:23:36.760Z,26.40
2022-08-11T01:26:40.627Z,26.13
2022-08-11T01:29:10.138Z,26.31
2022-08-11T01:32:15.144Z,26.24
2022-08-11T01:35:01.412Z,26.31
2022-08-11T01:37:58.807Z,26.33
2022-08-11T01:41:02.924Z,26.22
2022-08-11T01:44:04.821Z,25.97
2022-08-11T01:47:02.597Z,25.86
2022-08-11T01:50:07.833Z,26.10
2022-08-11T01:52:41.142Z,25.98
2022-08-11T01:55:18.327Z,25.93
2022-08-11T01:57:56.657Z,25.80
2022-08-11T02:00:29.039Z,26.01
2022-08-11T02:03:19.376Z,25.97
2022-08-11T02:06:32.406Z,25.85
2022-08-11T02:09:23.105Z,26.50
2022-08-11T02:11:55.782Z,26.86
2022-08-11T02:14:39.684Z,27.35
2022-08-11T02:17:15.193Z,26.69
2022-08-11T02:20:06.375Z,26.20
2022-08-11T02:22:51.493Z,25.90
2022-08-11T02:25:21.801Z,25.75
2022-08-11T02:27:57.693Z,25.75
2022-08-11T02:30:35.364Z,26.15
2022-08-11T02:33:27.478Z,26.33
2022-08-11T02:35:57.138Z,25.99
2022-08-11T02:38:35.740Z,25.84
2022-08-11T02:41:58.521Z,25.69
2022-08-11T02:44:32.516Z,25.88
2022-08-11T02:47:09.396Z,26.83
2022-08-11T02:50:06.141Z,26.99
2022-08-11T02:53:02.178Z,26.75
2022-08-11T02:55:57.072Z,27.09
2022-08-11T02:59:15.845Z,26.81
2022-08-11T03:02:10.893Z,26.79
2022-08-11T03:04:55.244Z,26.60
2022-08-11T03:07:29.749Z,26.32
2022-08-11T03:10:11.712Z,25.91
2022-08-11T03:12:59.850Z,25.38
2022-08-11T03:15:56.596Z,25.12
2022-08-11T03:18:28.761Z,25.02
2022-08-11T03:22:03.195Z,24.88
2022-08-11T03:24:26.350Z,24.67
2022-08-11T03:27:13.923Z,24.99
2022-08-11T03:30:15.448Z,25.05
2022-08-11T03:33:18.417Z,25.28
2022-08-11T03:36:23.086Z,24.89
2022-08-11T03:39:06.010Z,24.80
2022-08-11T03:42:02.778Z,24.80
2022-08-11T03:44:50.451Z,25.11
2022-08-11T03:47:41.561Z,24.97
2022-08-11T03:50:39.925Z,24.95
2022-08-11T03:53:34.616Z,25.00
2022-08-11T03:56:13.223Z,24.95
2022-08-11T03:59:17.355Z,24.94
2022-08-11T04:02:05.627Z,24.85
2022-08-11T04:05:09.721Z,24.78
2022-08-11T04:07:58.171Z,24.77
2022-08-11T04:10:33.629Z,24.85
2022-08-11T04:13:00.299Z,24.98
2022-08-11T04:16:20.135Z,25.04
2022-08-11T04:19:11.889Z,24.88
2022-08-11T04:22:15.502Z,24.83
2022-08-11T04:24:57.378Z,25.04
2022-08-11T04:27:47.854Z,24.90
2022-08-11T04:30:28.725Z,24.86
2022-08-11T04:32:59.997Z,25.01
2022-08-11T04:35:54.744Z,25.06
2022-08-11T04:38:58.790Z,25.13
2022-08-11T04:42:18.309Z,25.46
2022-08-11T04:45:03.144Z,25.60
2022-08-11T04:48:10.700Z,25.69
2022-08-11T04:51:36.787Z,25.64
2022-08-11T04:54:55.976Z,25.51
2022-08-11T04:58:06.119Z,25.61
2022-08-11T05:01:09.366Z,25.40
2022-08-11T05:04:28.107Z,25.36
2022-08-11T05:07:10.011Z,25.31
2022-08-11T05:10:00.876Z,25.32
2022-08-11T05:13:21.253Z,25.46
2022-08-11T05:16:20.732Z,25.61
2022-08-11T05:19:19.227Z,25.79
2022-08-11T05:22:11.929Z,25.86
2022-08-11T05:25:06.094Z,25.93
2022-08-11T05:28:08.182Z,26.01
2022-08-11T05:30:57.165Z,25.71
2022-08-11T05:33:52.078Z,25.52
2022-08-11T05:36:30.031Z,25.73
2022-08-11T05:39:19.731Z,25.86
2022-08-11T05:42:30.101Z,25.89
2022-08-11T05:45:22.797Z,25.95
2022-08-11T05:48:08.413Z,25.88
2022-08-11T05:50:53.992Z,25.88
2022-08-11T05:53:46.183Z,25.82
2022-08-11T05:56:20.439Z,25.96
2022-08-11T05:58:50.900Z,25.98
2022-08-11T06:01:26.531Z,26.20
2022-08-11T06:04:14.613Z,26.05
2022-08-11T06:06:52.576Z,26.09
2022-08-11T06:09:47.431Z,26.16
2022-08-11T06:12:32.224Z,26.29
2022-08-11T06:15:05.830Z,26.11
2022-08-11T06:17:38.533Z,26.20
2022-08-11T06:20:12.315Z,26.16
2022-08-11T06:22:42.006Z,26.41
2022-08-11T06:25:12.309Z,26.40
2022-08-11T06:27:42.038Z,26.44
2022-08-11T06:30:19.473Z,26.43
2022-08-11T06:32:51.828Z,26.39
2022-08-11T06:35:31.114Z,26.59
2022-08-11T06:38:10.738Z,26.67
2022-08-11T06:41:07.941Z,26.70
2022-08-11T06:44:04.661Z,26.72
2022-08-11T06:46:38.859Z,26.79
2022-08-11T06:49:07.110Z,26.73
2022-08-11T06:51:37.264Z,26.99
2022-08-11T06:54:12.755Z,27.17
2022-08-11T06:57:28.394Z,27.01
2022-08-11T07:00:07.396Z,26.83
2022-08-11T07:02:43.331Z,26.76
2022-08-11T07:05:45.536Z,26.67
2022-08-11T07:09:19.902Z,26.84
2022-08-11T07:12:11.519Z,26.85
2022-08-11T07:15:01.195Z,26.92
2022-08-11T07:17:29.342Z,27.08
2022-08-11T07:20:18.485Z,27.16
2022-08-11T07:23:13.273Z,27.09
2022-08-11T07:26:01.167Z,27.08
2022-08-11T07:28:48.358Z,27.15
2022-08-11T07:31:21.637Z,27.13
2022-08-11T07:34:06.893Z,27.47
2022-08-11T07:36:40.473Z,27.62
2022-08-11T07:39:15.478Z,27.99
2022-08-11T07:41:44.295Z,27.80
2022-08-11T07:44:12.611Z,27.74
2022-08-11T07:47:01.096Z,27.70
2022-08-11T07:49:50.102Z,28.03
2022-08-11T07:52:26.924Z,27.82
2022-08-11T07:54:55.583Z,28.10
2022-08-11T07:57:42.307Z,27.97
2022-08-11T08:00:44.938Z,27.93
2022-08-11T08:03:37.658Z,27.84
2022-08-11T08:06:39.339Z,27.68
2022-08-11T08:09:26.254Z,27.64
2022-08-11T08:12:11.711Z,27.99
2022-08-11T08:14:57.437Z,27.84
2022-08-11T08:17:43.913Z,27.73
2022-08-11T08:20:13.784Z,27.77
2022-08-11T08:22:45.135Z,27.78
2022-08-11T08:25:15.394Z,27.84
2022-08-11T08:27:43.689Z,27.94
2022-08-11T08:30:29.455Z,27.90
2022-08-11T08:32:57.884Z,28.08
2022-08-11T08:35:27.349Z,28.08
2022-08-11T08:37:59.775Z,28.02
2022-08-11T08:40:26.944Z,28.08
2022-08-11T08:43:07.400Z,28.25
2022-08-11T08:45:39.671Z,28.52
2022-08-11T08:48:16.126Z,28.49
2022-08-11T08:51:12.357Z,28.27
2022-08-11T08:53:52.667Z,28.30
2022-08-11T08:56:28.526Z,28.58
2022-08-11T08:58:58.890Z,28.41
2022-08-11T09:01:28.726Z,28.58
2022-08-11T09:04:05.385Z,28.59
2022-08-11T09:06:40.269Z,28.41
2022-08-11T09:09:12.267Z,28.68
2022-08-11T09:11:51.409Z,28.66
2022-08-11T09:14:20.222Z,28.46
2022-08-11T09:16:48.758Z,28.56
2022-08-11T09:19:17.581Z,28.73
2022-08-11T09:22:08.737Z,28.85
2022-08-11T09:24:57.053Z,29.07
2022-08-11T09:27:25.491Z,28.94
2022-08-11T09:29:53.176Z,28.93
2022-08-11T09:32:21.970Z,28.96
2022-08-11T09:34:52.450Z,29.04
2022-08-11T09:37:54.172Z,29.09
2022-08-11T09:40:30.501Z,29.11
2022-08-11T09:43:22.292Z,29.09
2022-08-11T09:45:51.878Z,29.31
2022-08-11T09:48:20.295Z,29.23
2022-08-11T09:50:51.302Z,29.29
2022-08-11T09:53:35.996Z,29.22
2022-08-11T09:56:26.969Z,29.38
2022-08-11T09:58:53.728Z,29.61
2022-08-11T10:01:29.912Z,29.56
2022-08-11T10:04:01.280Z,29.87
2022-08-11T10:06:48.325Z,30.18
2022-08-11T10:09:25.111Z,30.11
2022-08-11T10:11:58.553Z,30.20
2022-08-11T10:14:53.705Z,30.13
2022-08-11T10:17:22.024Z,30.13
2022-08-11T10:20:05.312Z,30.75
2022-08-11T10:22:51.816Z,30.55
2022-08-11T10:25:37.351Z,30.68
2022-08-11T10:28:30.520Z,30.71
2022-08-11T10:31:40.971Z,30.87
2022-08-11T10:34:20.760Z,30.85
2022-08-11T10:36:49.595Z,30.53
2022-08-11T10:39:20.542Z,30.54
2022-08-11T10:42:12.256Z,30.65
2022-08-11T10:44:47.757Z,31.02
2022-08-11T10:47:34.040Z,30.87
2022-08-11T10:50:27.650Z,31.13
2022-08-11T10:53:17.277Z,31.12
2022-08-11T10:58:51.125Z,30.78
2022-08-11T11:01:22.589Z,30.67
2022-08-11T11:03:58.149Z,30.59
2022-08-11T11:06:51.554Z,30.77
2022-08-11T11:09:38.035Z,30.60
2022-08-11T11:12:32.366Z,30.42
2022-08-11T11:15:21.125Z,30.46
2022-08-11T11:17:56.652Z,30.43
2022-08-11T11:20:36.918Z,30.46
2022-08-11T11:23:07.810Z,30.69
2022-08-11T11:25:37.858Z,31.13
2022-08-11T11:28:10.591Z,31.27
2022-08-11T11:31:03.241Z,31.15
2022-08-11T11:34:06.239Z,31.10
2022-08-11T11:36:52.049Z,31.27
2022-08-11T11:39:25.253Z,31.63
2022-08-11T11:41:55.853Z,32.04
2022-08-11T11:44:23.603Z,32.42
2022-08-11T11:46:52.255Z,32.26
2022-08-11T11:51:50.014Z,31.66
2022-08-11T11:54:19.737Z,31.51
2022-08-11T11:56:46.506Z,31.56
2022-08-11T11:59:33.793Z,31.67
2022-08-11T12:02:01.625Z,31.72
2022-08-11T12:04:42.962Z,31.96
2022-08-11T12:07:29.985Z,31.87
2022-08-11T12:09:58.498Z,31.63
2022-08-11T12:12:44.722Z,31.83
2022-08-11T12:15:12.849Z,31.92
2022-08-11T12:17:40.100Z,31.70
2022-08-11T12:20:31.954Z,31.30
2022-08-11T12:23:15.382Z,31.16
2022-08-11T12:26:26.528Z,31.08
2022-08-11T12:28:50.623Z,31.67
2022-08-11T12:31:17.679Z,32.12
2022-08-11T12:33:44.634Z,32.02
2022-08-11T12:36:15.815Z,31.64
2022-08-11T12:38:51.208Z,31.62
2022-08-11T12:41:39.854Z,31.86
2022-08-11T12:44:28.143Z,32.47
2022-08-11T12:46:57.407Z,32.53
2022-08-11T12:49:45.534Z,32.20
2022-08-11T12:52:22.475Z,32.29
2022-08-11T12:55:03.414Z,32.43
2022-08-11T12:57:55.917Z,31.97
2022-08-11T13:00:42.775Z,31.72
2022-08-11T13:03:30.113Z,31.97
2022-08-11T13:05:59.925Z,32.08
2022-08-11T13:08:29.249Z,31.90
2022-08-11T13:11:19.025Z,32.11
2022-08-11T13:13:55.835Z,32.89
2022-08-11T13:16:28.089Z,33.47
2022-08-11T13:18:57.511Z,32.99
2022-08-11T13:21:24.997Z,32.47
2022-08-11T13:24:01.031Z,32.57
2022-08-11T13:26:47.487Z,32.13
2022-08-11T13:29:21.558Z,32.22
2022-08-11T13:31:48.700Z,32.27
2022-08-11T13:34:16.860Z,32.26
2022-08-11T13:36:44.051Z,32.06
2022-08-11T13:39:11.658Z,32.04
2022-08-11T13:41:42.137Z,32.10
2022-08-11T13:44:12.133Z,32.28
2022-08-11T13:46:40.828Z,32.21
2022-08-11T13:49:15.855Z,31.87
2022-08-11T13:51:43.696Z,31.77
2022-08-11T13:54:22.651Z,31.76
2022-08-11T13:56:54.100Z,31.83
2022-08-11T13:59:30.135Z,31.64
2022-08-11T14:02:21.524Z,31.16
2022-08-11T14:04:58.938Z,30.90
2022-08-11T14:07:32.197Z,31.42
2022-08-11T14:10:00.086Z,31.28
2022-08-11T14:12:50.173Z,30.99
2022-08-11T14:15:29.110Z,31.01
2022-08-11T14:18:20.320Z,30.95
2022-08-11T14:21:11.471Z,30.88
2022-08-11T14:23:41.623Z,30.75
2022-08-11T14:26:29.138Z,30.70
2022-08-11T14:29:02.190Z,30.66
2022-08-11T14:31:32.228Z,30.54
2022-08-11T14:34:02.932Z,30.69
2022-08-11T14:36:36.996Z,30.66
2022-08-11T14:39:08.357Z,30.29
2022-08-11T14:42:11.672Z,30.39
2022-08-11T14:45:01.205Z,30.43
2022-08-11T14:47:30.166Z,30.27
2022-08-11T14:50:11.647Z,30.33
2022-08-11T14:52:44.692Z,30.30
2022-08-11T14:55:31.360Z,30.55
2022-08-11T14:57:59.013Z,30.53
2022-08-11T15:00:26.694Z,30.51
2022-08-11T15:03:14.931Z,30.27
2022-08-11T15:05:56.636Z,30.52
2022-08-11T15:08:46.095Z,31.04
2022-08-11T15:11:34.013Z,31.69
2022-08-11T15:14:05.056Z,31.95
2022-08-11T15:16:50.697Z,31.95
2022-08-11T15:19:21.762Z,32.25
2022-08-11T15:22:08.419Z,32.37
2022-08-11T15:24:37.510Z,32.21
2022-08-11T15:27:38.721Z,31.99
2022-08-11T15:30:33.324Z,32.06
2022-08-11T15:33:29.920Z,32.53
2022-08-11T15:36:16.584Z,32.52
2022-08-11T15:39:20.975Z,32.24
2022-08-11T15:42:20.567Z,32.12
2022-08-11T15:45:17.379Z,32.19
2022-08-11T15:48:05.168Z,32.21
2022-08-11T15:50:38.819Z,31.73
2022-08-11T15:53:25.516Z,31.26
2022-08-11T15:55:53.418Z,31.06
2022-08-11T15:58:39.264Z,30.73
2022-08-11T16:01:26.903Z,30.63
2022-08-11T16:04:12.805Z,30.74
2022-08-11T16:06:54.047Z,30.74
2022-08-11T16:09:28.055Z,30.78
2022-08-11T16:12:04.082Z,30.96
2022-08-11T16:14:57.970Z,30.75
2022-08-11T16:17:27.752Z,30.49
2022-08-11T16:19:56.758Z,30.46
2022-08-11T16:22:41.381Z,30.56
2022-08-11T16:27:04.132Z,30.60
2022-08-11T16:28:14.560Z,30.52
2022-08-11T16:30:43.962Z,30.41
2022-08-11T16:33:48.104Z,30.34
2022-08-11T16:36:17.059Z,30.22
2022-08-11T16:38:44.483Z,30.25
2022-08-11T16:41:37.213Z,30.28
2022-08-11T16:44:37.298Z,30.25
2022-08-11T16:47:12.169Z,30.15
2022-08-11T16:49:52.873Z,30.27
2022-08-11T16:52:21.107Z,30.50
2022-08-11T16:54:48.264Z,30.31
2022-08-11T16:57:43.114Z,30.14
2022-08-11T17:03:22.035Z,30.09
2022-08-11T17:06:11.655Z,30.04
2022-08-11T17:09:10.493Z,30.14
2022-08-11T17:12:02.650Z,30.02
2022-08-11T17:14:37.623Z,29.99
2022-08-11T17:17:14.066Z,29.97
2022-08-11T17:20:42.954Z,29.96
2022-08-11T17:22:58.474Z,29.95
2022-08-11T17:25:28.340Z,29.86
2022-08-11T17:27:56.836Z,29.91
2022-08-11T17:30:45.401Z,29.85
2022-08-11T17:33:31.438Z,29.76
2022-08-11T17:35:59.722Z,29.71
2022-08-11T17:38:27.616Z,29.66
2022-08-11T17:41:23.654Z,29.87
2022-08-11T17:44:12.758Z,29.81
2022-08-11T17:47:05.245Z,29.78
2022-08-11T17:49:37.765Z,29.84
2022-08-11T17:52:25.288Z,29.82
2022-08-11T17:55:14.114Z,29.79
2022-08-11T17:58:02.183Z,29.67
2022-08-11T18:00:31.915Z,29.72
2022-08-11T18:03:18.583Z,29.62
2022-08-11T18:05:47.225Z,29.62
2022-08-11T18:08:35.520Z,29.59
2022-08-11T18:12:11.187Z,29.58
2022-08-11T18:14:30.949Z,29.48
2022-08-11T18:17:16.577Z,29.59
2022-08-11T18:20:01.934Z,29.66
2022-08-11T18:22:53.415Z,29.52
2022-08-11T18:25:56.729Z,29.41
2022-08-11T18:28:51.480Z,29.36
2022-08-11T18:31:39.649Z,29.34
2022-08-11T18:34:29.285Z,29.44
2022-08-11T18:37:28.736Z,29.34
2022-08-11T18:40:24.157Z,29.37
2022-08-11T18:43:11.783Z,29.30
2022-08-11T18:46:06.226Z,29.21
2022-08-11T18:48:55.177Z,29.31
2022-08-11T18:51:42.673Z,29.26
2022-08-11T18:54:30.643Z,29.36
2022-08-11T18:57:20.183Z,29.33
2022-08-11T19:00:07.716Z,29.45
2022-08-11T19:02:57.243Z,29.33
2022-08-11T19:06:32.583Z,29.34
2022-08-11T19:08:56.051Z,29.20
2022-08-11T19:11:43.904Z,29.14
2022-08-11T19:14:31.614Z,29.15
2022-08-11T19:17:43.878Z,29.20
2022-08-11T19:20:32.229Z,29.23
2022-08-11T19:23:18.628Z,29.19
2022-08-11T19:26:06.147Z,29.13
2022-08-11T19:28:55.735Z,29.15
2022-08-11T19:31:44.946Z,29.08
2022-08-11T19:34:35.110Z,29.26
2022-08-11T19:37:25.454Z,29.30
2022-08-11T19:40:24.923Z,29.12
2022-08-11T19:43:23.469Z,29.03
2022-08-11T19:46:15.324Z,28.98
2022-08-11T19:49:02.227Z,29.05
2022-08-11T19:51:54.273Z,28.87
2022-08-11T19:54:44.487Z,28.70
2022-08-11T19:57:34.682Z,28.63
2022-08-11T20:00:30.282Z,28.74
2022-08-11T20:03:17.775Z,28.83
2022-08-11T20:06:06.159Z,28.71
2022-08-11T20:08:57.798Z,28.49
2022-08-11T20:11:45.374Z,28.50
2022-08-11T20:14:31.856Z,28.38
2022-08-11T20:17:18.106Z,28.36
2022-08-11T20:20:03.666Z,28.46
2022-08-11T20:22:50.568Z,28.32
2022-08-11T20:25:37.790Z,28.24
2022-08-11T20:28:24.377Z,28.31
2022-08-11T20:31:11.047Z,28.41
2022-08-11T20:33:58.604Z,28.30
2022-08-11T20:36:47.613Z,28.18
2022-08-11T20:39:41.910Z,28.13
2022-08-11T20:42:30.771Z,28.08
2022-08-11T20:45:23.359Z,28.07
2022-08-11T20:48:15.219Z,27.91
2022-08-11T20:51:07.474Z,28.01
2022-08-11T20:53:58.128Z,27.82
2022-08-11T20:56:47.468Z,27.83
2022-08-11T20:59:38.486Z,27.75
2022-08-11T21:02:40.148Z,27.73
2022-08-11T21:06:09.097Z,27.75
2022-08-11T21:08:31.742Z,27.76
2022-08-11T21:11:28.013Z,27.69
2022-08-11T21:14:14.029Z,27.63
2022-08-11T21:17:27.186Z,27.68
2022-08-11T21:20:18.430Z,27.65
2022-08-11T21:23:19.951Z,27.49
2022-08-11T21:26:17.282Z,27.43
2022-08-11T21:29:04.352Z,27.54
2022-08-11T21:31:51.523Z,27.57
2022-08-11T21:34:38.742Z,27.74
2022-08-11T21:37:26.099Z,27.92
2022-08-11T21:40:17.087Z,27.83
2022-08-11T21:43:05.529Z,27.79
2022-08-11T21:45:54.280Z,27.69
2022-08-11T21:48:41.438Z,27.47
2022-08-11T21:51:26.935Z,27.63
2022-08-11T21:54:13.135Z,27.56
2022-08-11T21:57:00.948Z,27.33
2022-08-11T21:59:56.196Z,27.31
2022-08-11T22:02:53.059Z,27.28
2022-08-11T22:05:39.516Z,27.28
2022-08-11T22:08:25.630Z,27.31
2022-08-11T22:11:11.306Z,27.28
2022-08-11T22:14:00.778Z,27.25
2022-08-11T22:16:52.762Z,27.32
2022-08-11T22:19:39.935Z,27.27
2022-08-11T22:22:26.492Z,27.29
2022-08-11T22:25:16.026Z,27.33
2022-08-11T22:28:01.723Z,27.39
2022-08-11T22:30:47.237Z,27.35
2022-08-11T22:33:33.335Z,27.34
2022-08-11T22:36:19.783Z,27.39
2022-08-11T22:39:10.089Z,27.34
2022-08-11T22:41:55.576Z,27.35
2022-08-11T22:44:41.060Z,27.28
2022-08-11T22:47:40.291Z,27.32
2022-08-11T22:50:29.138Z,27.39
2022-08-11T22:53:16.856Z,27.59
2022-08-11T22:56:03.066Z,27.47
2022-08-11T22:58:48.672Z,27.39
2022-08-11T23:01:37.918Z,27.38
2022-08-11T23:04:41.538Z,27.26
2022-08-11T23:07:50.735Z,27.24
2022-08-11T23:10:33.316Z,27.20
2022-08-11T23:13:22.316Z,27.18
2022-08-11T23:16:08.856Z,27.19
2022-08-11T23:18:54.803Z,27.23
2022-08-11T23:21:40.425Z,27.12
2022-08-11T23:24:26.688Z,27.08
2022-08-11T23:27:12.573Z,27.13
2022-08-11T23:30:00.281Z,27.20
2022-08-11T23:32:49.403Z,27.33
2022-08-11T23:35:40.083Z,27.27
2022-08-11T23:38:36.216Z,27.22
2022-08-11T23:41:22.433Z,27.30
2022-08-11T23:44:08.732Z,27.26
2022-08-11T23:46:54.750Z,27.24
2022-08-11T23:49:40.989Z,27.25
2022-08-11T23:52:26.691Z,27.34
2022-08-11T23:55:12.842Z,27.38
2022-08-11T23:57:58.309Z,27.50
